Latest Weather Observations for Cerberus

IDV60801

Issued at 5:42 am EDT Saturday 19 October 2019 (issued every 10 minutes, with the page automatically refreshed every 10 minutes)

About weather observations | Map of weather stations | Latest weather observations for VIC | Other Formats
Station Details ID: 086361 Name: CERBERUS Lat: -38.36 Lon: 145.18 Height: 12.69 m
Data from the previous 72 hours. | See also: Recent months at Cerberus
Date/Time
EDT
Temp
°C
App
Temp
°C
Dew
Point
°C
Rel
Hum
%
Delta-T
°C
Wind Press
QNH
hPa
Press
MSL
hPa
Rain since
9am
mm
Dir  Spd
km/h
Gust
km/h
Spd
kts
Gust
kts
19/05:30am 9.4 4.8 5.4 76 1.8 NW 19 28 10 15 1011.6 1011.6 2.2
19/05:00am 9.7 4.4 5.1 73 2.1 WNW 22 35 12 19 1011.6 1011.6 2.2
19/04:30am 9.5 5.3 5.9 78 1.7 WNW 17 28 9 15 1011.6 1011.6 2.2
19/04:00am 9.7 6.0 6.2 79 1.6 WNW 15 30 8 16 1011.8 1011.8 2.2
19/03:30am 9.5 6.3 6.8 83 1.3 WNW 13 19 7 10 1012.0 1012.0 2.2
19/03:00am 8.8 6.2 6.3 84 1.2 NW 9 15 5 8 1011.9 1011.9 2.2
19/02:30am 9.2 6.7 6.5 83 1.3 WNW 9 13 5 7 1011.9 1011.9 2.2
19/02:00am 9.4 5.7 6.1 80 1.5 WNW 15 24 8 13 1012.2 1012.2 2.2
19/01:30am 10.4 6.3 6.2 75 2.0 WNW 17 33 9 18 1012.5 1012.5 1.8
19/01:00am 10.3 7.7 6.3 76 1.9 WNW 9 13 5 7 1012.6 1012.6 1.8
19/12:30am 10.7 7.5 6.8 77 1.8 WNW 13 22 7 12 1012.6 1012.6 1.8
19/12:00am 11.1 8.5 7.8 80 1.6 WNW 11 19 6 10 1012.7 1012.7 1.8
 
Date/Time
EDT
Temp
°C
App
Temp
°C
Dew
Point
°C
Rel
Hum
%
Delta-T
°C
Wind Press
QNH
hPa
Press
MSL
hPa
Rain since
9am
mm
Dir  Spd
km/h
Gust
km/h
Spd
kts
Gust
kts
18/11:30pm 11.1 8.2 8.1 82 1.5 WNW 13 20 7 11 1012.6 1012.6 1.8
18/11:00pm 10.7 9.9 8.3 85 1.2 WNW 2 6 1 3 1012.8 1012.8 1.8
18/10:30pm 10.8 10.4 8.4 85 1.2 CALM 0 0 0 0 1012.5 1012.5 1.8
18/10:00pm 10.8 9.7 8.4 85 1.2 WSW 4 7 2 4 1012.5 1012.5 1.8
18/09:30pm 10.8 8.3 8.4 85 1.2 W 11 17 6 9 1012.3 1012.3 1.8
18/09:00pm 11.1 6.6 8.5 84 1.3 W 22 32 12 17 1011.9 1011.9 1.2
18/08:30pm 11.5 6.7 8.9 84 1.3 W 24 41 13 22 1011.5 1011.5 0.8
18/08:00pm 13.1 9.2 9.5 79 1.8 WSW 20 35 11 19 1010.6 1010.6 0.2
18/07:30pm 13.0 9.1 9.3 78 1.9 WSW 20 32 11 17 1010.0 1010.0 0.2
18/07:08pm 16.8 12.4 7.2 53 4.8 WSW 20 52 11 28 1009.4 1009.4 0.2
18/07:00pm 17.4 13.8 6.6 49 5.3 WNW 15 26 8 14 1008.6 1008.6 0.2
18/06:30pm 17.9 12.1 6.1 46 5.8 NW 26 43 14 23 1008.6 1008.6 0.2
18/06:00pm 18.3 12.3 5.5 43 6.2 NW 26 41 14 22 1008.2 1008.2 0.2
18/05:30pm 19.1 12.8 5.6 41 6.6 NW 28 43 15 23 1008.0 1008.0 0.2
18/05:00pm 18.7 13.2 5.9 43 6.3 NW 24 39 13 21 1008.6 1008.6 0.2
18/04:30pm 19.1 12.8 5.6 41 6.6 NW 28 41 15 22 1008.7 1008.7 0.2
18/04:24pm 19.3 13.0 5.7 41 6.7 WNW 28 50 15 27 1008.8 1008.8 0.2
18/04:00pm 18.6 12.8 6.4 45 6.1 NW 26 46 14 25 1009.2 1009.2 0.2
18/03:30pm 19.6 13.8 6.4 42 6.6 NW 26 46 14 25 1009.5 1009.5 0.2
18/03:00pm 19.2 13.1 6.7 44 6.3 WNW 28 56 15 30 1009.7 1009.7 0.2
18/02:30pm 18.5 11.6 6.4 45 6.0 NW 32 54 17 29 1010.3 1010.3 0.2
18/02:00pm 17.7 10.9 6.9 49 5.4 NW 32 52 17 28 1010.4 1010.4 0.2
18/01:32pm 17.6 11.6 7.1 50 5.2 NW 28 50 15 27 1011.1 1011.1 0.2
18/01:30pm 17.2 11.1 6.7 50 5.2 NW 28 44 15 24 1011.1 1011.1 0.2
18/01:00pm 16.3 9.3 6.2 51 4.9 NW 32 59 17 32 1011.4 1011.4 0.2
18/12:36pm 15.9 9.6 5.8 51 4.9 NW 28 46 15 25 1011.9 1011.9 0.2
18/12:30pm 16.1 9.6 6.5 53 4.7 NNW 30 46 16 25 1012.0 1012.0 0.2
18/12:07pm 15.8 9.4 5.4 50 5.0 NW 28 46 15 25 1012.5 1012.5 0.2
18/12:00pm 15.8 9.4 5.1 49 5.1 NNW 28 41 15 22 1012.6 1012.6 0.2
18/11:30am 14.7 10.0 5.2 53 4.5 NNW 19 37 10 20 1013.3 1013.3 0.0
18/11:00am 13.8 9.0 4.7 54 4.2 NNW 19 35 10 19 1013.9 1013.8 0.0
18/10:30am 12.7 7.9 4.4 57 3.8 NNW 19 33 10 18 1014.2 1014.1 0.0
18/10:00am 12.5 7.7 4.7 59 3.6 NNW 19 39 10 21 1014.3 1014.2 0.0
18/09:30am 12.4 8.4 4.9 60 3.4 NNW 15 24 8 13 1014.5 1014.4 0.0
18/09:00am 12.4 7.9 4.1 57 3.7 NNW 17 28 9 15 1014.7 1014.6 0.8
18/08:30am 12.1 7.7 4.6 60 3.4 NNW 17 33 9 18 1014.6 1014.5 0.8
18/08:00am 11.6 8.0 4.8 63 3.1 NNW 13 26 7 14 1014.8 1014.7 0.8
18/07:30am 10.6 7.3 4.5 66 2.7 NW 11 19 6 10 1014.9 1014.8 0.8
18/07:00am 9.3 6.6 3.5 67 2.5 NW 7 15 4 8 1014.8 1014.7 0.8
18/06:30am 9.4 6.2 3.2 65 2.7 NW 9 22 5 12 1014.7 1014.6 0.8
18/06:00am 10.4 6.4 3.0 60 3.2 WNW 13 20 7 11 1014.8 1014.7 0.8
18/05:30am 10.5 5.4 2.8 59 3.3 WNW 19 35 10 19 1014.8 1014.7 0.8
18/05:00am 10.3 7.2 3.6 63 2.9 NW 9 13 5 7 1014.9 1014.8 0.8
18/04:30am 10.3 6.8 3.3 62 3.0 WNW 11 19 6 10 1014.8 1014.7 0.8
18/04:00am 10.1 6.6 3.6 64 2.8 WNW 11 24 6 13 1015.0 1014.9 0.8
18/03:30am 9.2 5.7 3.6 68 2.4 WNW 11 20 6 11 1015.3 1015.2 0.8
18/03:00am 8.3 5.6 3.8 73 1.9 NW 7 11 4 6 1015.3 1015.2 0.8
18/02:30am 9.2 6.2 4.0 70 2.3 NW 9 13 5 7 1015.4 1015.3 0.8
18/02:00am 9.7 6.1 4.9 72 2.2 WNW 13 20 7 11 1015.4 1015.3 0.8
18/01:30am 10.0 6.6 6.0 76 1.8 WNW 13 20 7 11 1015.6 1015.5 0.8
18/01:00am 10.2 7.0 6.9 80 1.6 WNW 13 26 7 14 1015.7 1015.6 0.8
18/12:30am 10.3 8.0 7.5 83 1.3 NW 9 13 5 7 1015.9 1015.8 0.8
18/12:00am 10.5 7.5 7.9 84 1.3 WNW 13 22 7 12 1016.0 1015.9 0.8
 
Date/Time
EDT
Temp
°C
App
Temp
°C
Dew
Point
°C
Rel
Hum
%
Delta-T
°C
Wind Press
QNH
hPa
Press
MSL
hPa
Rain since
9am
mm
Dir  Spd
km/h
Gust
km/h
Spd
kts
Gust
kts
17/11:30pm 10.9 7.9 7.8 81 1.5 W 13 20 7 11 1016.2 1016.1 0.8
17/11:00pm 11.6 9.4 7.9 78 1.8 WNW 9 17 5 9 1016.0 1015.9 0.6
17/10:30pm 11.3 9.6 7.6 78 1.8 WSW 6 9 3 5 1015.9 1015.8 0.6
17/10:00pm 11.4 8.4 7.5 77 1.9 W 13 20 7 11 1015.7 1015.6 0.6
17/09:30pm 11.5 9.0 8.0 79 1.7 W 11 20 6 11 1015.4 1015.3 0.6
17/09:00pm 11.4 8.0 7.7 78 1.8 WSW 15 24 8 13 1014.9 1014.8 0.6
17/08:30pm 11.5 7.8 8.0 79 1.7 WSW 17 26 9 14 1014.4 1014.3 0.6
17/08:00pm 11.3 7.9 7.8 79 1.7 W 15 20 8 11 1013.8 1013.7 0.6
17/07:30pm 12.1 7.9 7.4 73 2.3 WSW 19 28 10 15 1013.1 1013.1 0.6
17/07:00pm 12.0 7.1 7.1 72 2.4 WSW 22 35 12 19 1012.4 1012.4 0.6
17/06:30pm 12.5 7.1 8.2 75 2.1 WSW 26 41 14 22 1011.7 1011.7 0.6
17/06:00pm 11.6 7.3 7.9 78 1.8 SW 20 33 11 18 1011.4 1011.4 0.6
17/05:30pm 12.0 7.1 8.5 79 1.7 WSW 24 39 13 21 1010.6 1010.6 0.6
17/05:00pm 14.3 9.8 8.7 69 2.8 WSW 22 39 12 21 1010.0 1010.0 0.2
17/04:48pm 12.9 7.1 7.8 71 2.5 WSW 28 46 15 25 1010.0 1010.0 0.2
17/04:30pm 13.4 7.7 8.3 71 2.5 WSW 28 46 15 25 1009.7 1009.7 0.2
17/04:00pm 14.0 8.2 6.1 59 3.8 W 26 41 14 22 1009.0 1009.0 0.2
17/03:30pm 13.5 8.7 7.5 67 2.9 W 22 35 12 19 1008.9 1008.9 0.2
17/03:00pm 13.3 8.0 6.9 65 3.1 W 24 37 13 20 1008.7 1008.7 0.2
17/02:30pm 13.5 7.1 6.8 64 3.2 WNW 30 46 16 25 1008.8 1008.8 0.2
17/02:08pm 12.4 6.2 6.2 66 2.9 WNW 28 46 15 25 1008.8 1008.8 0.2
17/02:00pm 12.5 5.9 6.1 65 3.0 WNW 30 46 16 25 1008.8 1008.8 0.2
17/01:34pm 12.3 5.1 5.7 64 3.1 WNW 33 54 18 29 1008.5 1008.5 0.2
17/01:30pm 12.3 4.9 5.2 62 3.3 WNW 33 48 18 26 1008.4 1008.4 0.2
17/01:02pm 13.5 6.3 6.1 61 3.5 WNW 33 52 18 28 1008.2 1008.2 0.2
17/01:00pm 13.1 5.4 5.5 60 3.6 WNW 35 52 19 28 1008.2 1008.2 0.2
17/12:37pm 13.3 7.3 7.1 66 3.0 WNW 28 46 15 25 1008.2 1008.2 0.2
17/12:30pm 12.8 7.0 7.9 72 2.4 WNW 28 43 15 23 1008.4 1008.4 0.2
17/12:00pm 12.1 6.3 6.4 68 2.7 W 26 52 14 28 1008.6 1008.6 0.2
17/11:36am 12.7 6.0 5.6 62 3.3 WNW 30 48 16 26 1008.1 1008.1 0.2
17/11:30am 13.0 6.9 6.4 64 3.1 WNW 28 43 15 23 1008.1 1008.1 0.2
17/11:22am 13.2 7.1 6.8 65 3.1 WNW 28 46 15 25 1008.1 1008.1 0.2
17/11:00am 12.7 6.7 7.0 68 2.8 WNW 28 43 15 23 1007.9 1007.9 0.2
17/10:30am 11.3 5.2 6.4 72 2.3 WNW 28 43 15 23 1008.1 1008.1 0.2
17/10:00am 10.7 5.4 6.8 77 1.8 WNW 24 35 13 19 1008.2 1008.2 0.2
17/09:30am 9.4 4.8 6.3 81 1.4 WNW 20 35 11 19 1007.9 1007.9 0.2
17/09:00am 9.4 3.8 5.2 75 1.9 WNW 24 37 13 20 1007.6 1007.6 5.6
17/08:30am 10.6 5.1 5.8 72 2.2 WNW 24 39 13 21 1007.4 1007.4 5.6
17/08:00am 10.3 5.7 5.7 73 2.1 WNW 19 30 10 16 1007.3 1007.3 5.6
17/07:30am 9.9 5.7 5.5 74 2.0 W 17 26 9 14 1006.9 1006.9 5.6
17/07:00am 9.2 4.5 5.2 76 1.8 WNW 19 28 10 15 1006.3 1006.3 5.6
17/06:30am 9.1 5.3 6.0 81 1.4 W 15 26 8 14 1006.3 1006.3 5.6
17/06:00am 9.3 6.1 6.7 84 1.2 WNW 13 22 7 12 1006.1 1006.1 5.6
17/05:30am - - - - - W 9 19 5 10 1005.8 1005.8 5.6
17/05:00am 8.3 6.2 6.6 89 0.8 W 7 11 4 6 1005.8 1005.8 5.6
17/04:30am 8.1 4.8 6.4 89 0.8 W 13 19 7 10 1005.9 1005.9 5.4
17/04:00am 8.7 4.3 6.5 86 1.0 WNW 19 59 10 32 1006.4 1006.4 2.0
17/03:58am 10.2 7.0 8.3 88 0.9 NW 15 59 8 32 1006.1 1006.1 2.0
17/03:30am 10.4 9.8 8.8 90 0.8 N 2 4 1 2 1005.3 1005.3 1.8
17/03:00am 10.5 9.6 9.1 91 0.7 NW 4 7 2 4 1006.1 1006.1 1.8
17/02:30am 10.5 9.5 8.9 90 0.8 N 4 6 2 3 1006.1 1006.1 1.8
17/02:00am 11.0 10.5 9.4 90 0.8 N 2 6 1 3 1006.7 1006.7 1.8
17/01:30am 11.3 10.1 9.7 90 0.8 NNW 6 9 3 5 1007.3 1007.3 1.6
17/01:00am 11.3 10.5 9.7 90 0.8 W 4 6 2 3 1007.8 1007.8 1.4
17/12:30am 11.1 10.3 9.5 90 0.8 ESE 4 6 2 3 1008.1 1008.1 1.2
17/12:00am 10.4 10.1 8.7 89 0.8 CALM 0 2 0 1 1008.3 1008.3 1.2
 
Date/Time
EDT
Temp
°C
App
Temp
°C
Dew
Point
°C
Rel
Hum
%
Delta-T
°C
Wind Press
QNH
hPa
Press
MSL
hPa
Rain since
9am
mm
Dir  Spd
km/h
Gust
km/h
Spd
kts
Gust
kts
16/11:30pm 10.4 9.7 8.7 89 0.8 ESE 2 4 1 2 1008.5 1008.5 1.2
16/11:00pm 10.0 9.6 8.1 88 0.9 CALM 0 2 0 1 1008.8 1008.8 1.2
16/10:30pm 11.1 10.5 9.0 87 1.0 ESE 2 6 1 3 1008.9 1008.9 1.2
16/10:00pm 11.8 11.0 9.7 87 1.1 ESE 4 7 2 4 1009.0 1009.0 1.2
16/09:30pm 11.0 9.6 8.8 86 1.1 SE 6 7 3 4 1009.0 1009.0 1.2
16/09:00pm 11.5 10.2 9.1 85 1.2 SSE 6 7 3 4 1008.9 1008.9 1.2
16/08:30pm 12.1 10.8 9.3 83 1.4 SE 6 7 3 4 1008.8 1008.8 1.2
16/08:00pm 12.8 11.7 9.8 82 1.5 SSE 6 9 3 5 1008.8 1008.8 1.2
16/07:30pm 13.2 11.5 10.0 81 1.6 SSW 9 13 5 7 1008.4 1008.4 1.2
16/07:00pm 13.7 11.7 10.1 79 1.9 SSW 11 17 6 9 1008.2 1008.2 1.2
16/06:30pm 14.9 12.6 10.5 75 2.3 SSW 13 20 7 11 1007.9 1007.9 1.2
16/06:00pm 15.1 13.6 10.5 74 2.4 SW 9 17 5 9 1007.6 1007.6 1.2
16/05:30pm 15.2 12.7 11.2 77 2.1 SSW 15 20 8 11 1007.5 1007.5 1.2
16/05:00pm 15.1 12.2 10.9 76 2.2 SW 17 24 9 13 1007.2 1007.2 1.2
16/04:30pm 17.1 14.4 10.5 65 3.5 SW 15 24 8 13 1006.8 1006.8 1.2
16/04:00pm 17.8 14.8 10.7 63 3.8 W 17 32 9 17 1006.9 1006.9 1.2
16/03:30pm 16.6 14.7 11.7 73 2.7 NW 13 26 7 14 1007.2 1007.2 1.2
16/03:00pm 16.6 14.3 10.5 67 3.2 NW 13 26 7 14 1007.3 1007.3 0.4
16/02:30pm 18.7 14.8 9.5 55 4.9 NW 20 33 11 18 1007.8 1007.8 0.2
16/02:00pm 19.2 16.2 10.7 58 4.6 NNW 17 28 9 15 1008.0 1008.0 0.2
16/01:30pm 18.8 17.8 12.3 66 3.6 NW 9 20 5 11 1008.4 1008.4 0.2
16/01:00pm 17.2 15.8 11.0 67 3.3 NNW 9 20 5 11 1009.1 1009.1 0.2
16/12:30pm 15.9 14.4 10.7 71 2.8 NNW 9 17 5 9 1009.3 1009.3 0.2
16/12:00pm 14.7 13.7 10.9 78 2.0 NNE 7 15 4 8 1009.4 1009.4 0.2
16/11:30am 14.4 12.6 10.8 79 1.9 NNE 11 20 6 11 1009.3 1009.3 0.2
16/11:00am 13.6 12.6 11.0 84 1.4 N 7 13 4 7 1010.1 1010.1 0.2
16/10:30am 13.6 13.3 11.3 86 1.2 N 4 7 2 4 1010.4 1010.4 0.0
16/10:00am 13.2 12.7 10.7 85 1.3 NNE 4 7 2 4 1010.6 1010.6 0.0
16/09:30am 13.1 13.0 10.8 86 1.2 ENE 2 4 1 2 1010.3 1010.3 0.0
16/09:00am 13.0 12.5 10.9 87 1.1 ESE 4 6 2 3 1010.3 1010.3 0.2
16/08:30am 12.5 12.0 10.6 88 1.0 ESE 4 6 2 3 1010.9 1010.9 0.2
16/08:00am 12.3 12.1 10.4 88 1.0 ESE 2 6 1 3 1011.2 1011.2 0.2
16/07:30am 12.2 12.0 10.3 88 1.0 ESE 2 4 1 2 1011.6 1011.6 0.0
16/07:00am 12.1 11.9 10.3 89 0.9 SSE 2 7 1 4 1011.5 1011.5 0.0
16/06:30am 11.6 10.9 9.9 89 0.9 SSE 4 4 2 2 1011.6 1011.6 0.0
16/06:00am 11.4 10.6 9.7 89 0.9 SW 4 6 2 3 1011.5 1011.5 0.0

Other formats

Comma delimited format used in spreadsheet applications
http://www.bom.gov.au/fwo/IDV60801/IDV60801.94898.axf

JavaScript Object Notation format (JSON) in row-major order
http://www.bom.gov.au/fwo/IDV60801/IDV60801.94898.json

Data quality

Most of these data are generated automatically and are frequently updated. Quality checks on data are not normally performed. It is possible for incorrect values to appear. Refer to information at About Latest Weather Observations and please check the disclaimer before using these data.